sensor_id;sensor_type;location;lat;lon;timestamp;pressure;altitude;pressure_sealevel;temperature;humidity
5284;BME280;15377;48.540;9.268;2024-02-23T00:00:29;95576.03;;;5.51;100.00
5284;BME280;15377;48.540;9.268;2024-02-23T00:02:55;95571.88;;;5.61;100.00
5284;BME280;15377;48.540;9.268;2024-02-23T00:05:22;95576.41;;;5.64;100.00
5284;BME280;15377;48.540;9.268;2024-02-23T00:07:49;95564.25;;;5.65;100.00
5284;BME280;15377;48.540;9.268;2024-02-23T00:10:14;95564.25;;;5.65;100.00
5284;BME280;15377;48.540;9.268;2024-02-23T00:12:41;95561.19;;;5.57;100.00
5284;BME280;15377;48.540;9.268;2024-02-23T00:15:07;95578.91;;;5.67;100.00
5284;BME280;15377;48.540;9.268;2024-02-23T00:17:32;95564.00;;;5.63;100.00
5284;BME280;15377;48.540;9.268;2024-02-23T00:19:57;95589.31;;;5.69;100.00
5284;BME280;15377;48.540;9.268;2024-02-23T00:22:23;95594.53;;;5.67;100.00
5284;BME280;15377;48.540;9.268;2024-02-23T00:24:50;95598.75;;;5.68;100.00
5284;BME280;15377;48.540;9.268;2024-02-23T00:27:16;95612.13;;;5.66;100.00
5284;BME280;15377;48.540;9.268;2024-02-23T00:29:41;95612.56;;;5.59;100.00
5284;BME280;15377;48.540;9.268;2024-02-23T00:32:06;95632.78;;;5.47;100.00
5284;BME280;15377;48.540;9.268;2024-02-23T00:34:32;95633.72;;;5.44;100.00
5284;BME280;15377;48.540;9.268;2024-02-23T00:36:57;95625.03;;;5.40;100.00
5284;BME280;15377;48.540;9.268;2024-02-23T00:39:23;95626.38;;;5.30;100.00
5284;BME280;15377;48.540;9.268;2024-02-23T00:41:48;95635.78;;;5.29;100.00
5284;BME280;15377;48.540;9.268;2024-02-23T00:44:14;95636.16;;;5.16;100.00
5284;BME280;15377;48.540;9.268;2024-02-23T00:46:39;95630.38;;;5.09;100.00
5284;BME280;15377;48.540;9.268;2024-02-23T00:49:05;95624.78;;;4.98;100.00
5284;BME280;15377;48.540;9.268;2024-02-23T00:51:31;95629.06;;;4.84;100.00
5284;BME280;15377;48.540;9.268;2024-02-23T00:53:56;95656.69;;;4.92;100.00
5284;BME280;15377;48.540;9.268;2024-02-23T00:56:22;95642.22;;;4.86;100.00
5284;BME280;15377;48.540;9.268;2024-02-23T00:58:48;95646.66;;;4.83;100.00
5284;BME280;15377;48.540;9.268;2024-02-23T01:01:13;95651.34;;;4.83;100.00
5284;BME280;15377;48.540;9.268;2024-02-23T01:03:38;95649.09;;;4.81;100.00
5284;BME280;15377;48.540;9.268;2024-02-23T01:06:04;95649.84;;;4.82;100.00
5284;BME280;15377;48.540;9.268;2024-02-23T01:08:29;95655.03;;;4.80;100.00
5284;BME280;15377;48.540;9.268;2024-02-23T01:10:54;95653.78;;;4.81;100.00
5284;BME280;15377;48.540;9.268;2024-02-23T01:13:20;95645.34;;;4.79;100.00
5284;BME280;15377;48.540;9.268;2024-02-23T01:15:45;95616.75;;;4.69;100.00
5284;BME280;15377;48.540;9.268;2024-02-23T01:18:11;95625.72;;;4.75;100.00
5284;BME280;15377;48.540;9.268;2024-02-23T01:20:36;95617.94;;;4.68;100.00
5284;BME280;15377;48.540;9.268;2024-02-23T01:23:02;95630.63;;;4.71;100.00
5284;BME280;15377;48.540;9.268;2024-02-23T01:25:27;95633.84;;;4.69;100.00
5284;BME280;15377;48.540;9.268;2024-02-23T01:27:52;95637.78;;;4.68;100.00
5284;BME280;15377;48.540;9.268;2024-02-23T01:30:18;95645.19;;;4.68;100.00
5284;BME280;15377;48.540;9.268;2024-02-23T01:32:47;95638.53;;;4.69;100.00
5284;BME280;15377;48.540;9.268;2024-02-23T01:35:12;95646.72;;;4.69;100.00
5284;BME280;15377;48.540;9.268;2024-02-23T01:37:38;95632.34;;;4.68;100.00
5284;BME280;15377;48.540;9.268;2024-02-23T01:40:03;95636.56;;;4.69;100.00
5284;BME280;15377;48.540;9.268;2024-02-23T01:42:29;95636.56;;;4.69;100.00
5284;BME280;15377;48.540;9.268;2024-02-23T01:44:55;95638.53;;;4.69;100.00
5284;BME280;15377;48.540;9.268;2024-02-23T01:47:23;95648.28;;;4.75;100.00
5284;BME280;15377;48.540;9.268;2024-02-23T01:49:50;95661.13;;;4.75;100.00
5284;BME280;15377;48.540;9.268;2024-02-23T01:52:16;95644.78;;;4.75;100.00
5284;BME280;15377;48.540;9.268;2024-02-23T01:54:43;95641.59;;;4.76;100.00
5284;BME280;15377;48.540;9.268;2024-02-23T01:57:09;95634.19;;;4.77;100.00
5284;BME280;15377;48.540;9.268;2024-02-23T01:59:38;95628.19;;;4.73;100.00
5284;BME280;15377;48.540;9.268;2024-02-23T02:02:05;95636.41;;;4.78;100.00
5284;BME280;15377;48.540;9.268;2024-02-23T02:04:30;95631.47;;;4.77;100.00
5284;BME280;15377;48.540;9.268;2024-02-23T02:06:57;95630.50;;;4.80;100.00
5284;BME280;15377;48.540;9.268;2024-02-23T02:09:23;95632.75;;;4.81;100.00
5284;BME280;15377;48.540;9.268;2024-02-23T02:11:48;95647.41;;;4.84;100.00
5284;BME280;15377;48.540;9.268;2024-02-23T02:14:14;95647.41;;;4.84;100.00
5284;BME280;15377;48.540;9.268;2024-02-23T02:16:40;95658.31;;;4.84;100.00
5284;BME280;15377;48.540;9.268;2024-02-23T02:19:05;95641.97;;;4.84;100.00
5284;BME280;15377;48.540;9.268;2024-02-23T02:21:32;95632.97;;;4.78;100.00
5284;BME280;15377;48.540;9.268;2024-02-23T02:23:57;95670.78;;;4.90;100.00
5284;BME280;15377;48.540;9.268;2024-02-23T02:26:22;95667.84;;;4.94;100.00
5284;BME280;15377;48.540;9.268;2024-02-23T02:28:48;95651.50;;;4.94;100.00
5284;BME280;15377;48.540;9.268;2024-02-23T02:31:13;95655.97;;;4.97;100.00
5284;BME280;15377;48.540;9.268;2024-02-23T02:33:40;95647.81;;;4.97;100.00
5284;BME280;15377;48.540;9.268;2024-02-23T02:36:06;95645.44;;;5.04;100.00
5284;BME280;15377;48.540;9.268;2024-02-23T02:38:31;95643.50;;;5.10;100.00
5284;BME280;15377;48.540;9.268;2024-02-23T02:40:58;95652.72;;;5.13;100.00
5284;BME280;15377;48.540;9.268;2024-02-23T02:43:25;95663.88;;;5.15;100.00
5284;BME280;15377;48.540;9.268;2024-02-23T02:45:51;95644.06;;;5.14;100.00
5284;BME280;15377;48.540;9.268;2024-02-23T02:48:16;95641.41;;;5.20;100.00
5284;BME280;15377;48.540;9.268;2024-02-23T02:50:42;95645.63;;;5.21;100.00
5284;BME280;15377;48.540;9.268;2024-02-23T02:53:07;95651.00;;;5.15;100.00
5284;BME280;15377;48.540;9.268;2024-02-23T02:55:32;95655.28;;;5.22;100.00
5284;BME280;15377;48.540;9.268;2024-02-23T02:57:57;95658.22;;;5.18;100.00
5284;BME280;15377;48.540;9.268;2024-02-23T03:00:24;95652.78;;;5.18;100.00
5284;BME280;15377;48.540;9.268;2024-02-23T03:02:49;95635.63;;;5.12;100.00
5284;BME280;15377;48.540;9.268;2024-02-23T03:05:15;95648.56;;;5.17;100.00
5284;BME280;15377;48.540;9.268;2024-02-23T03:07:40;95645.34;;;5.19;100.00
5284;BME280;15377;48.540;9.268;2024-02-23T03:10:06;95647.59;;;5.20;100.00
5284;BME280;15377;48.540;9.268;2024-02-23T03:12:32;95646.84;;;5.20;100.00
5284;BME280;15377;48.540;9.268;2024-02-23T03:14:57;95635.94;;;5.20;100.00
5284;BME280;15377;48.540;9.268;2024-02-23T03:17:23;95641.41;;;5.20;100.00
5284;BME280;15377;48.540;9.268;2024-02-23T03:19:48;95654.28;;;5.19;100.00
5284;BME280;15377;48.540;9.268;2024-02-23T03:22:15;95656.25;;;5.19;100.00
5284;BME280;15377;48.540;9.268;2024-02-23T03:24:41;95640.44;;;5.23;100.00
5284;BME280;15377;48.540;9.268;2024-02-23T03:27:06;95625.03;;;5.20;100.00
5284;BME280;15377;48.540;9.268;2024-02-23T03:29:32;95636.72;;;5.20;100.00
5284;BME280;15377;48.540;9.268;2024-02-23T03:31:58;95638.63;;;5.14;100.00
5284;BME280;15377;48.540;9.268;2024-02-23T03:34:24;95664.28;;;5.28;100.00
5284;BME280;15377;48.540;9.268;2024-02-23T03:36:49;95668.03;;;5.30;100.00
5284;BME280;15377;48.540;9.268;2024-02-23T03:39:14;95652.41;;;5.31;100.00
5284;BME280;15377;48.540;9.268;2024-02-23T03:41:40;95667.56;;;5.32;100.00
5284;BME280;15377;48.540;9.268;2024-02-23T03:44:05;95681.63;;;5.25;100.00
5284;BME280;15377;48.540;9.268;2024-02-23T03:46:31;95694.56;;;5.30;100.00
5284;BME280;15377;48.540;9.268;2024-02-23T03:48:56;95686.09;;;5.28;100.00
5284;BME280;15377;48.540;9.268;2024-02-23T03:51:22;95677.66;;;5.26;100.00
5284;BME280;15377;48.540;9.268;2024-02-23T03:53:48;95662.25;;;5.23;100.00
5284;BME280;15377;48.540;9.268;2024-02-23T03:56:15;95655.78;;;5.20;100.00
5284;BME280;15377;48.540;9.268;2024-02-23T03:58:40;95654.28;;;5.19;100.00
5284;BME280;15377;48.540;9.268;2024-02-23T04:01:06;95654.97;;;5.14;100.00
5284;BME280;15377;48.540;9.268;2024-02-23T04:03:31;95665.66;;;5.18;100.00
5284;BME280;15377;48.540;9.268;2024-02-23T04:05:56;95662.69;;;5.16;100.00
5284;BME280;15377;48.540;9.268;2024-02-23T04:08:21;95677.19;;;5.07;100.00
5284;BME280;15377;48.540;9.268;2024-02-23T04:10:47;95662.06;;;5.06;100.00
5284;BME280;15377;48.540;9.268;2024-02-23T04:13:12;95660.50;;;5.00;100.00
5284;BME280;15377;48.540;9.268;2024-02-23T04:15:43;95667.44;;;5.01;100.00
5284;BME280;15377;48.540;9.268;2024-02-23T04:18:08;95669.34;;;4.95;100.00
5284;BME280;15377;48.540;9.268;2024-02-23T04:20:33;95676.09;;;4.99;100.00
5284;BME280;15377;48.540;9.268;2024-02-23T04:22:59;95669.88;;;4.99;100.00
5284;BME280;15377;48.540;9.268;2024-02-23T04:25:24;95655.97;;;4.97;100.00
5284;BME280;15377;48.540;9.268;2024-02-23T04:27:50;95648.50;;;4.92;100.00
5284;BME280;15377;48.540;9.268;2024-02-23T04:30:15;95650.00;;;4.93;100.00
5284;BME280;15377;48.540;9.268;2024-02-23T04:32:41;95644.00;;;4.89;100.00
5284;BME280;15377;48.540;9.268;2024-02-23T04:35:07;95655.59;;;4.84;100.00
5284;BME280;15377;48.540;9.268;2024-02-23T04:37:33;95652.16;;;4.89;100.00
5284;BME280;15377;48.540;9.268;2024-02-23T04:39:58;95650.41;;;4.86;100.00
5284;BME280;15377;48.540;9.268;2024-02-23T04:42:24;95639.34;;;4.75;100.00
5284;BME280;15377;48.540;9.268;2024-02-23T04:44:49;95632.56;;;4.85;100.00
5284;BME280;15377;48.540;9.268;2024-02-23T04:47:15;95631.78;;;4.84;100.00
5284;BME280;15377;48.540;9.268;2024-02-23T04:49:40;95642.97;;;4.86;100.00
5284;BME280;15377;48.540;9.268;2024-02-23T04:52:08;95653.13;;;4.86;100.00
5284;BME280;15377;48.540;9.268;2024-02-23T04:54:34;95642.69;;;4.84;100.00
5284;BME280;15377;48.540;9.268;2024-02-23T04:57:00;95641.00;;;4.87;100.00
5284;BME280;15377;48.540;9.268;2024-02-23T04:59:25;95631.59;;;4.88;100.00
5284;BME280;15377;48.540;9.268;2024-02-23T05:01:50;95642.75;;;4.90;100.00
5284;BME280;15377;48.540;9.268;2024-02-23T05:04:16;95648.50;;;4.92;100.00
5284;BME280;15377;48.540;9.268;2024-02-23T05:06:41;95652.09;;;4.83;100.00
5284;BME280;15377;48.540;9.268;2024-02-23T05:09:08;95652.31;;;4.80;100.00
5284;BME280;15377;48.540;9.268;2024-02-23T05:11:34;95634.84;;;4.72;100.00
5284;BME280;15377;48.540;9.268;2024-02-23T05:14:00;95661.72;;;4.79;100.00
5284;BME280;15377;48.540;9.268;2024-02-23T05:16:25;95672.03;;;4.75;100.00
5284;BME280;15377;48.540;9.268;2024-02-23T05:18:50;95665.38;;;4.76;100.00
5284;BME280;15377;48.540;9.268;2024-02-23T05:21:16;95670.81;;;4.76;100.00
5284;BME280;15377;48.540;9.268;2024-02-23T05:23:41;95659.66;;;4.74;100.00
5284;BME280;15377;48.540;9.268;2024-02-23T05:26:07;95656.66;;;4.72;100.00
5284;BME280;15377;48.540;9.268;2024-02-23T05:28:32;95659.03;;;4.64;100.00
5284;BME280;15377;48.540;9.268;2024-02-23T05:30:58;95665.69;;;4.63;100.00
5284;BME280;15377;48.540;9.268;2024-02-23T05:33:23;95662.69;;;4.61;100.00
5284;BME280;15377;48.540;9.268;2024-02-23T05:35:49;95657.72;;;4.60;100.00
5284;BME280;15377;48.540;9.268;2024-02-23T05:38:15;95658.53;;;4.66;100.00
5284;BME280;15377;48.540;9.268;2024-02-23T05:40:42;95670.94;;;4.67;100.00
5284;BME280;15377;48.540;9.268;2024-02-23T05:43:07;95676.38;;;4.67;100.00
5284;BME280;15377;48.540;9.268;2024-02-23T05:45:32;95681.84;;;4.67;100.00
5284;BME280;15377;48.540;9.268;2024-02-23T05:47:58;95675.16;;;4.68;100.00
5284;BME280;15377;48.540;9.268;2024-02-23T05:50:23;95674.88;;;4.66;100.00
5284;BME280;15377;48.540;9.268;2024-02-23T05:52:49;95679.03;;;4.61;100.00
5284;BME280;15377;48.540;9.268;2024-02-23T05:55:14;95671.75;;;4.53;100.00
5284;BME280;15377;48.540;9.268;2024-02-23T05:57:39;95690.13;;;4.58;100.00
5284;BME280;15377;48.540;9.268;2024-02-23T06:00:05;95703.94;;;4.54;100.00
5284;BME280;15377;48.540;9.268;2024-02-23T06:02:32;95700.47;;;4.54;100.00
5284;BME280;15377;48.540;9.268;2024-02-23T06:04:58;95692.59;;;4.56;100.00
5284;BME280;15377;48.540;9.268;2024-02-23T06:07:23;95704.50;;;4.58;100.00
5284;BME280;15377;48.540;9.268;2024-02-23T06:09:56;95710.16;;;4.55;100.00
5284;BME280;15377;48.540;9.268;2024-02-23T06:12:22;95724.63;;;4.46;100.00
5284;BME280;15377;48.540;9.268;2024-02-23T06:14:48;95727.81;;;4.45;100.00
5284;BME280;15377;48.540;9.268;2024-02-23T06:17:13;95721.81;;;4.41;100.00
5284;BME280;15377;48.540;9.268;2024-02-23T06:19:38;95712.34;;;4.36;100.00
5284;BME280;15377;48.540;9.268;2024-02-23T06:22:04;95715.81;;;4.37;100.00
5284;BME280;15377;48.540;9.268;2024-02-23T06:24:29;95707.66;;;4.37;100.00
5284;BME280;15377;48.540;9.268;2024-02-23T06:26:54;95713.09;;;4.37;100.00
5284;BME280;15377;48.540;9.268;2024-02-23T06:29:20;95701.09;;;4.29;100.00
5284;BME280;15377;48.540;9.268;2024-02-23T06:31:45;95691.69;;;4.30;100.00
5284;BME280;15377;48.540;9.268;2024-02-23T06:34:15;95691.41;;;4.28;100.00
5284;BME280;15377;48.540;9.268;2024-02-23T06:36:40;95692.25;;;4.34;100.00
5284;BME280;15377;48.540;9.268;2024-02-23T06:39:05;95677.00;;;4.42;100.00
5284;BME280;15377;48.540;9.268;2024-02-23T06:41:31;95689.59;;;4.54;100.00
5284;BME280;15377;48.540;9.268;2024-02-23T06:43:56;95683.75;;;4.61;100.00
5284;BME280;15377;48.540;9.268;2024-02-23T06:46:22;95695.94;;;4.65;100.00
5284;BME280;15377;48.540;9.268;2024-02-23T06:48:47;95686.63;;;4.72;100.00
5284;BME280;15377;48.540;9.268;2024-02-23T06:51:13;95692.22;;;4.83;100.00
5284;BME280;15377;48.540;9.268;2024-02-23T06:53:39;95688.56;;;4.86;100.00
5284;BME280;15377;48.540;9.268;2024-02-23T06:56:05;95674.94;;;4.86;100.00
5284;BME280;15377;48.540;9.268;2024-02-23T06:58:30;95683.63;;;4.90;100.00
5284;BME280;15377;48.540;9.268;2024-02-23T07:00:56;95685.69;;;4.95;100.00
5284;BME280;15377;48.540;9.268;2024-02-23T07:03:22;95696.59;;;4.95;100.00
5284;BME280;15377;48.540;9.268;2024-02-23T07:05:47;95703.00;;;4.92;100.00
5284;BME280;15377;48.540;9.268;2024-02-23T07:08:15;95704.22;;;4.91;100.00
5284;BME280;15377;48.540;9.268;2024-02-23T07:10:40;95716.06;;;4.88;100.00
5284;BME280;15377;48.540;9.268;2024-02-23T07:13:05;95710.63;;;4.88;100.00
5284;BME280;15377;48.540;9.268;2024-02-23T07:15:32;95726.00;;;4.91;100.00
5284;BME280;15377;48.540;9.268;2024-02-23T07:17:58;95722.34;;;4.94;100.00
5284;BME280;15377;48.540;9.268;2024-02-23T07:20:23;95720.47;;;5.00;100.00
5284;BME280;15377;48.540;9.268;2024-02-23T07:22:49;95721.75;;;5.04;100.00
5284;BME280;15377;48.540;9.268;2024-02-23T07:25:18;95739.94;;;5.13;100.00
5284;BME280;15377;48.540;9.268;2024-02-23T07:27:45;95741.81;;;5.21;100.00
5284;BME280;15377;48.540;9.268;2024-02-23T07:30:11;95743.63;;;5.30;100.00
5284;BME280;15377;48.540;9.268;2024-02-23T07:32:37;95745.09;;;5.45;100.00
5284;BME280;15377;48.540;9.268;2024-02-23T07:35:03;95741.44;;;5.54;100.00
5284;BME280;15377;48.540;9.268;2024-02-23T07:37:29;95739.34;;;5.63;100.00
5284;BME280;15377;48.540;9.268;2024-02-23T07:39:54;95744.44;;;5.76;100.00
5284;BME280;15377;48.540;9.268;2024-02-23T07:42:20;95743.78;;;5.81;100.00
5284;BME280;15377;48.540;9.268;2024-02-23T07:44:45;95751.56;;;5.88;100.00
5284;BME280;15377;48.540;9.268;2024-02-23T07:47:11;95744.88;;;5.89;100.00
5284;BME280;15377;48.540;9.268;2024-02-23T07:49:37;95741.44;;;5.94;100.00
5284;BME280;15377;48.540;9.268;2024-02-23T07:52:02;95744.72;;;5.98;100.00
5284;BME280;15377;48.540;9.268;2024-02-23T07:54:28;95743.47;;;5.99;100.00
5284;BME280;15377;48.540;9.268;2024-02-23T07:56:53;95734.03;;;6.00;100.00
5284;BME280;15377;48.540;9.268;2024-02-23T07:59:19;95740.06;;;6.04;100.00
5284;BME280;15377;48.540;9.268;2024-02-23T08:01:44;95730.44;;;6.08;100.00
5284;BME280;15377;48.540;9.268;2024-02-23T08:04:10;95737.38;;;6.09;100.00
5284;BME280;15377;48.540;9.268;2024-02-23T08:06:35;95728.44;;;6.09;100.00
5284;BME280;15377;48.540;9.268;2024-02-23T08:09:00;95731.16;;;6.09;100.00
5284;BME280;15377;48.540;9.268;2024-02-23T08:11:26;95726.50;;;6.15;100.00
5284;BME280;15377;48.540;9.268;2024-02-23T08:13:51;95730.72;;;6.16;100.00
5284;BME280;15377;48.540;9.268;2024-02-23T08:16:16;95749.41;;;6.23;100.00
5284;BME280;15377;48.540;9.268;2024-02-23T08:18:42;95748.94;;;6.24;100.00
5284;BME280;15377;48.540;9.268;2024-02-23T08:21:10;95755.25;;;6.36;100.00
5284;BME280;15377;48.540;9.268;2024-02-23T08:23:36;95755.34;;;6.47;100.00
5284;BME280;15377;48.540;9.268;2024-02-23T08:26:01;95750.19;;;6.54;100.00
5284;BME280;15377;48.540;9.268;2024-02-23T08:28:26;95754.69;;;6.57;100.00
5284;BME280;15377;48.540;9.268;2024-02-23T08:30:52;95749.53;;;6.65;100.00
5284;BME280;15377;48.540;9.268;2024-02-23T08:33:18;95755.09;;;6.76;100.00
5284;BME280;15377;48.540;9.268;2024-02-23T08:35:43;95757.63;;;6.85;100.00
5284;BME280;15377;48.540;9.268;2024-02-23T08:38:09;95752.72;;;6.89;100.00
5284;BME280;15377;48.540;9.268;2024-02-23T08:40:34;95751.72;;;6.92;100.00
5284;BME280;15377;48.540;9.268;2024-02-23T08:43:00;95761.44;;;6.98;100.00
5284;BME280;15377;48.540;9.268;2024-02-23T08:45:25;95759.97;;;6.97;100.00
5284;BME280;15377;48.540;9.268;2024-02-23T08:47:51;95752.31;;;7.07;100.00
5284;BME280;15377;48.540;9.268;2024-02-23T08:50:16;95756.59;;;7.18;100.00
5284;BME280;15377;48.540;9.268;2024-02-23T08:52:41;95750.94;;;7.27;100.00
5284;BME280;15377;48.540;9.268;2024-02-23T08:55:07;95753.94;;;7.29;100.00
5284;BME280;15377;48.540;9.268;2024-02-23T08:57:33;95756.72;;;7.35;100.00
5284;BME280;15377;48.540;9.268;2024-02-23T08:59:58;95757.47;;;7.35;100.00
5284;BME280;15377;48.540;9.268;2024-02-23T09:02:26;95755.44;;;7.30;100.00
5284;BME280;15377;48.540;9.268;2024-02-23T09:04:52;95753.63;;;7.22;100.00
5284;BME280;15377;48.540;9.268;2024-02-23T09:07:17;95756.16;;;7.25;100.00
5284;BME280;15377;48.540;9.268;2024-02-23T09:09:46;95749.44;;;7.26;100.00
5284;BME280;15377;48.540;9.268;2024-02-23T09:12:11;95743.00;;;7.29;100.00
5284;BME280;15377;48.540;9.268;2024-02-23T09:14:37;95748.03;;;7.36;100.00
5284;BME280;15377;48.540;9.268;2024-02-23T09:17:04;95741.50;;;7.28;100.00
5284;BME280;15377;48.540;9.268;2024-02-23T09:19:29;95761.66;;;7.31;100.00
5284;BME280;15377;48.540;9.268;2024-02-23T09:21:55;95758.97;;;7.36;100.00
5284;BME280;15377;48.540;9.268;2024-02-23T09:24:20;95765.50;;;7.55;100.00
5284;BME280;15377;48.540;9.268;2024-02-23T09:26:47;95757.88;;;7.70;100.00
5284;BME280;15377;48.540;9.268;2024-02-23T09:29:12;95762.09;;;7.71;100.00
5284;BME280;15377;48.540;9.268;2024-02-23T09:31:38;95756.13;;;7.67;100.00
5284;BME280;15377;48.540;9.268;2024-02-23T09:34:03;95770.16;;;7.91;100.00
5284;BME280;15377;48.540;9.268;2024-02-23T09:36:28;95767.19;;;8.00;100.00
5284;BME280;15377;48.540;9.268;2024-02-23T09:38:55;95762.28;;;8.26;100.00
5284;BME280;15377;48.540;9.268;2024-02-23T09:41:22;95770.97;;;8.19;100.00
5284;BME280;15377;48.540;9.268;2024-02-23T09:43:47;95766.47;;;8.16;100.00
5284;BME280;15377;48.540;9.268;2024-02-23T09:46:15;95764.25;;;8.20;100.00
5284;BME280;15377;48.540;9.268;2024-02-23T09:48:44;95762.53;;;8.23;100.00
5284;BME280;15377;48.540;9.268;2024-02-23T09:51:10;95770.50;;;8.32;100.00
5284;BME280;15377;48.540;9.268;2024-02-23T09:53:37;95770.53;;;8.43;100.00
5284;BME280;15377;48.540;9.268;2024-02-23T09:56:04;95773.28;;;8.48;100.00
5284;BME280;15377;48.540;9.268;2024-02-23T09:58:34;95774.78;;;8.49;100.00
5284;BME280;15377;48.540;9.268;2024-02-23T10:01:02;95766.53;;;8.60;100.00
5284;BME280;15377;48.540;9.268;2024-02-23T10:03:28;95766.56;;;8.71;100.00
5284;BME280;15377;48.540;9.268;2024-02-23T10:05:57;95759.34;;;8.57;100.00
5284;BME280;15377;48.540;9.268;2024-02-23T10:08:22;95783.78;;;8.77;100.00
5284;BME280;15377;48.540;9.268;2024-02-23T10:10:48;95786.28;;;8.86;100.00
5284;BME280;15377;48.540;9.268;2024-02-23T10:13:20;95784.03;;;9.01;100.00
5284;BME280;15377;48.540;9.268;2024-02-23T10:15:49;95786.72;;;9.23;100.00
5284;BME280;15377;48.540;9.268;2024-02-23T10:18:16;95779.22;;;9.40;100.00
5284;BME280;15377;48.540;9.268;2024-02-23T10:20:41;95796.63;;;9.65;100.00
5284;BME280;15377;48.540;9.268;2024-02-23T10:23:08;95794.91;;;9.51;100.00
5284;BME280;15377;48.540;9.268;2024-02-23T10:25:34;95788.94;;;9.47;100.00
5284;BME280;15377;48.540;9.268;2024-02-23T10:28:01;95776.94;;;9.44;100.00
5284;BME280;15377;48.540;9.268;2024-02-23T10:30:27;95781.22;;;9.23;100.00
5284;BME280;15377;48.540;9.268;2024-02-23T10:32:55;95783.50;;;9.14;100.00
5284;BME280;15377;48.540;9.268;2024-02-23T10:35:21;95783.25;;;9.06;100.00
5284;BME280;15377;48.540;9.268;2024-02-23T10:37:49;95781.22;;;9.23;100.00
5284;BME280;15377;48.540;9.268;2024-02-23T10:40:19;95771.75;;;9.35;100.00
5284;BME280;15377;48.540;9.268;2024-02-23T10:42:46;95779.25;;;9.18;100.00
5284;BME280;15377;48.540;9.268;2024-02-23T10:45:20;95777.03;;;9.06;100.00
5284;BME280;15377;48.540;9.268;2024-02-23T10:47:47;95781.78;;;8.94;100.00
5284;BME280;15377;48.540;9.268;2024-02-23T10:50:14;95777.78;;;8.95;100.00
5284;BME280;15377;48.540;9.268;2024-02-23T10:52:42;95776.78;;;9.09;100.00
5284;BME280;15377;48.540;9.268;2024-02-23T10:55:12;95770.47;;;9.36;100.00
5284;BME280;15377;48.540;9.268;2024-02-23T10:57:38;95758.75;;;9.30;100.00
5284;BME280;15377;48.540;9.268;2024-02-23T11:00:08;95761.97;;;9.45;100.00
5284;BME280;15377;48.540;9.268;2024-02-23T11:02:45;95769.19;;;9.59;100.00
5284;BME280;15377;48.540;9.268;2024-02-23T11:05:12;95767.69;;;9.58;100.00
5284;BME280;15377;48.540;9.268;2024-02-23T11:07:39;95765.47;;;9.51;100.00
5284;BME280;15377;48.540;9.268;2024-02-23T11:10:07;95770.22;;;9.45;100.00
5284;BME280;15377;48.540;9.268;2024-02-23T11:12:35;95764.94;;;9.47;100.00
5284;BME280;15377;48.540;9.268;2024-02-23T11:15:01;95764.16;;;9.63;100.00
5284;BME280;15377;48.540;9.268;2024-02-23T11:17:27;95756.13;;;9.76;100.00
5284;BME280;15377;48.540;9.268;2024-02-23T11:19:55;95758.31;;;9.89;100.00
5284;BME280;15377;48.540;9.268;2024-02-23T11:22:25;95757.41;;;9.70;100.00
5284;BME280;15377;48.540;9.268;2024-02-23T11:25:05;95768.69;;;9.55;100.00
5284;BME280;15377;48.540;9.268;2024-02-23T11:27:32;95758.50;;;9.45;100.00
5284;BME280;15377;48.540;9.268;2024-02-23T11:29:59;95755.75;;;9.45;100.00
5284;BME280;15377;48.540;9.268;2024-02-23T11:32:52;95739.06;;;9.26;100.00
5284;BME280;15377;48.540;9.268;2024-02-23T11:35:25;95741.34;;;9.11;100.00
5284;BME280;15377;48.540;9.268;2024-02-23T11:40:26;95742.63;;;8.88;100.00
5284;BME280;15377;48.540;9.268;2024-02-23T11:42:51;95753.34;;;8.97;100.00
5284;BME280;15377;48.540;9.268;2024-02-23T11:45:16;95749.84;;;9.02;100.00
5284;BME280;15377;48.540;9.268;2024-02-23T11:47:42;95753.06;;;9.06;100.00
5284;BME280;15377;48.540;9.268;2024-02-23T11:50:11;95749.31;;;9.20;100.00
5284;BME280;15377;48.540;9.268;2024-02-23T11:52:37;95760.78;;;9.13;100.00
5284;BME280;15377;48.540;9.268;2024-02-23T11:55:04;95746.34;;;9.02;100.00
5284;BME280;15377;48.540;9.268;2024-02-23T11:57:31;95727.41;;;8.87;100.00
5284;BME280;15377;48.540;9.268;2024-02-23T11:59:57;95747.09;;;9.02;100.00
5284;BME280;15377;48.540;9.268;2024-02-23T12:02:24;95745.03;;;9.30;100.00
5284;BME280;15377;48.540;9.268;2024-02-23T12:04:49;95738.75;;;9.46;100.00
5284;BME280;15377;48.540;9.268;2024-02-23T12:07:15;95732.00;;;9.58;100.00
5284;BME280;15377;48.540;9.268;2024-02-23T12:09:41;95729.75;;;9.51;100.00
5284;BME280;15377;48.540;9.268;2024-02-23T12:12:07;95730.78;;;9.48;100.00
5284;BME280;15377;48.540;9.268;2024-02-23T12:14:35;95727.03;;;9.46;100.00
5284;BME280;15377;48.540;9.268;2024-02-23T12:17:02;95724.75;;;9.55;100.00
5284;BME280;15377;48.540;9.268;2024-02-23T12:19:29;95717.81;;;9.43;100.00
5284;BME280;15377;48.540;9.268;2024-02-23T12:22:00;95720.34;;;9.30;100.00
5284;BME280;15377;48.540;9.268;2024-02-23T12:24:25;95727.78;;;9.46;100.00
5284;BME280;15377;48.540;9.268;2024-02-23T12:26:56;95726.78;;;9.49;100.00
5284;BME280;15377;48.540;9.268;2024-02-23T12:29:22;95728.94;;;9.67;100.00
5284;BME280;15377;48.540;9.268;2024-02-23T12:31:48;95734.59;;;9.91;100.00
5284;BME280;15377;48.540;9.268;2024-02-23T12:34:13;95724.88;;;9.85;100.00
5284;BME280;15377;48.540;9.268;2024-02-23T12:36:39;95724.19;;;9.73;100.00
5284;BME280;15377;48.540;9.268;2024-02-23T12:39:04;95728.59;;;9.93;100.00
5284;BME280;15377;48.540;9.268;2024-02-23T12:41:30;95712.84;;;9.93;100.00
5284;BME280;15377;48.540;9.268;2024-02-23T12:43:56;95714.78;;;10.09;100.00
5284;BME280;15377;48.540;9.268;2024-02-23T12:46:21;95701.78;;;10.10;100.00
5284;BME280;15377;48.540;9.268;2024-02-23T12:48:46;95713.25;;;10.19;100.00
5284;BME280;15377;48.540;9.268;2024-02-23T12:51:12;95716.66;;;10.31;100.00
5284;BME280;15377;48.540;9.268;2024-02-23T12:53:41;95717.00;;;10.51;100.00
5284;BME280;15377;48.540;9.268;2024-02-23T12:56:10;95717.13;;;10.64;100.00
5284;BME280;15377;48.540;9.268;2024-02-23T12:58:41;95714.44;;;10.88;100.00
5284;BME280;15377;48.540;9.268;2024-02-23T13:01:06;95706.50;;;10.79;100.00
5284;BME280;15377;48.540;9.268;2024-02-23T13:03:33;95718.56;;;10.76;100.00
5284;BME280;15377;48.540;9.268;2024-02-23T13:05:58;95712.50;;;10.83;100.00